Aikomaru — JD4211 — position and weather

sailwx.info

Track history (hours):
 
Tides and Currents Weather Stations Pressure Air Temp Water Temp Dewpoint Dewpoint Depression Visibility Wind Speed Wind Dir Waves Ship Positions

Aikomaru

Last reported at 2017-Nov-24 02:10 UTC. Time now 2017-Nov-24 14:52 UTC.
Position N 35°31' E 139°45'.

Length 65 m; draft 3 m.

Type: Tanker. MMSI: 431009737.

Date/timePositionNaut miles runAvg speedWind from/ knotsBaromVisibWave heightAir tempDewpointWater temp
2017-Nov-24 02:10N 35°31' E 139°45'0 1.0
2017-Nov-24 02:01N 35°31' E 139°45'4 8.8
2017-Nov-24 01:30N 35°33' E 139°50'5 9.7
2017-Nov-24 01:00N 35°37' E 139°48'0 0.0
2017-Nov-24 00:30N 35°37' E 139°48'0 0.0
2017-Nov-24 00:00N 35°37' E 139°48'2 4.1
2017-Nov-23 23:30N 35°35' E 139°48'5 9.2
2017-Nov-23 23:00N 35°30' E 139°48'3 5.9
2017-Nov-23 22:30N 35°31' E 139°45'0 0.0
2017-Nov-23 08:17N 35°31' E 139°45'1 2.9
2017-Nov-23 08:01N 35°30' E 139°45'611.7
2017-Nov-23 07:30N 35°30' E 139°52'5 0.8
2017-Nov-23 01:47N 35°34' E 139°55'412.6
2017-Nov-23 01:30N 35°36' E 139°51'2 4.7
2017-Nov-23 01:00N 35°38' E 139°50'0 0.0
2017-Nov-23 00:30N 35°38' E 139°50'1 3.0
2017-Nov-23 00:00N 35°37' E 139°48'1 1.2
2017-Nov-22 23:31N 35°37' E 139°48'0 0.0
2017-Nov-22 22:59N 35°37' E 139°48'0 0.0
2017-Nov-22 22:26N 35°37' E 139°48'0 0.0
2017-Nov-22 22:00N 35°37' E 139°48'3 5.9
2017-Nov-22 21:31N 35°34' E 139°48'4 8.2
2017-Nov-22 21:01N 35°30' E 139°47'  
2017-Nov-20 00:30N 35°37' E 139°47'0 0.0
2017-Nov-20 00:00N 35°37' E 139°47'1 2.1
2017-Nov-19 23:30N 35°36' E 139°48'0 0.0
2017-Nov-19 23:00N 35°36' E 139°48'0 0.0
2017-Nov-19 22:30N 35°36' E 139°48'0 0.3
2017-Nov-19 22:00N 35°36' E 139°48'3 6.5
2017-Nov-19 21:30N 35°33' E 139°49'4 8.3
2017-Nov-19 21:00N 35°31' E 139°46'1 0.1
2017-Nov-19 05:28N 35°31' E 139°45'3 7.4
2017-Nov-19 05:01N 35°30' E 139°49'611.7
2017-Nov-19 04:31N 35°30' E 139°56'4 1.8
2017-Nov-19 02:29N 35°30' E 140°00'4 5.5
2017-Nov-19 01:45N 35°30' E 139°55'311.5
2017-Nov-19 01:30N 35°30' E 139°52'611.4
2017-Nov-19 01:01N 35°31' E 139°45'1 1.2
2017-Nov-19 00:30N 35°31' E 139°45'0 0.0
2017-Nov-19 00:00N 35°31' E 139°45'0 0.0
2017-Nov-18 09:07N 35°31' E 139°45'0 0.9
2017-Nov-18 09:00N 35°31' E 139°45'5 8.4
2017-Nov-18 08:28N 35°33' E 139°50'511.1
2017-Nov-18 08:00N 35°38' E 139°50'0 0.0
2017-Nov-18 07:23N 35°38' E 139°50'0 0.0
2017-Nov-18 07:00N 35°38' E 139°50'2 0.4
2017-Nov-18 02:17N 35°36' E 139°48'0 0.3
2017-Nov-18 02:00N 35°36' E 139°48'0 0.0
2017-Nov-18 01:30N 35°36' E 139°48'0 0.1
2017-Nov-18 00:59N 35°36' E 139°48'4 8.7
2017-Nov-18 00:30N 35°33' E 139°50'5 9.0
2017-Nov-18 00:00N 35°31' E 139°45'1 0.0
2017-Nov-16 07:28N 35°31' E 139°45'3 6.6
2017-Nov-16 07:00N 35°30' E 139°48'7 1.4
2017-Nov-16 02:03N 35°37' E 139°49'1 4.5
2017-Nov-16 01:51N 35°38' E 139°50'0 0.0
2017-Nov-16 01:25N 35°38' E 139°50'0 0.0
2017-Nov-16 00:54N 35°38' E 139°50'3 7.6
2017-Nov-16 00:30N 35°35' E 139°52'5 1.4
2017-Nov-15 21:04N 35°31' E 139°52'111.8
2017-Nov-15 21:01N 35°31' E 139°51'611.1
2017-Nov-15 20:30N 35°31' E 139°45'0 0.0
2017-Nov-15 05:59N 35°31' E 139°45'5 7.3
2017-Nov-15 05:22N 35°33' E 139°50'410.9
2017-Nov-15 05:00N 35°36' E 139°48'0 0.0
2017-Nov-15 03:09N 35°36' E 139°48'0 0.9
2017-Nov-15 03:00N 35°36' E 139°47'2 2.4
2017-Nov-15 02:04N 35°34' E 139°48'0 0.1
2017-Nov-15 01:59N 35°34' E 139°48'0 0.1
2017-Nov-15 01:30N 35°34' E 139°48'3 1.8
2017-Nov-14 23:44N 35°37' E 139°47'2 6.2
2017-Nov-14 23:28N 35°35' E 139°48'4 9.3
2017-Nov-14 23:00N 35°31' E 139°49'3 7.0
2017-Nov-14 22:30N 35°31' E 139°45'0 0.0
2017-Nov-14 08:28N 35°31' E 139°45'2 4.9
2017-Nov-14 08:00N 35°30' E 139°47'7 1.2
2017-Nov-14 02:13N 35°37' E 139°50'  
Track history (hours):
 
Tides and Currents Weather Stations Pressure Air Temp Water Temp Dewpoint Dewpoint Depression Visibility Wind Speed Wind Dir Waves Ship Positions

Aikomaru

Last reported at 2017-Nov-24 02:10 UTC. Time now 2017-Nov-24 14:52 UTC.
Position N 35°31' E 139°45'.

Length 65 m; draft 3 m.

Type: Tanker. MMSI: 431009737.

Date/timePositionNaut miles runAvg speedWind from/ knotsBaromVisibWave heightAir tempDewpointWater temp
2017-Nov-24 02:10N 35°31' E 139°45'0 1.0
2017-Nov-24 02:01N 35°31' E 139°45'4 8.8
2017-Nov-24 01:30N 35°33' E 139°50'5 9.7
2017-Nov-24 01:00N 35°37' E 139°48'0 0.0
2017-Nov-24 00:30N 35°37' E 139°48'0 0.0
2017-Nov-24 00:00N 35°37' E 139°48'2 4.1
2017-Nov-23 23:30N 35°35' E 139°48'5 9.2
2017-Nov-23 23:00N 35°30' E 139°48'3 5.9
2017-Nov-23 22:30N 35°31' E 139°45'0 0.0
2017-Nov-23 08:17N 35°31' E 139°45'1 2.9
2017-Nov-23 08:01N 35°30' E 139°45'611.7
2017-Nov-23 07:30N 35°30' E 139°52'5 0.8
2017-Nov-23 01:47N 35°34' E 139°55'412.6
2017-Nov-23 01:30N 35°36' E 139°51'2 4.7
2017-Nov-23 01:00N 35°38' E 139°50'0 0.0
2017-Nov-23 00:30N 35°38' E 139°50'1 3.0
2017-Nov-23 00:00N 35°37' E 139°48'1 1.2
2017-Nov-22 23:31N 35°37' E 139°48'0 0.0
2017-Nov-22 22:59N 35°37' E 139°48'0 0.0
2017-Nov-22 22:26N 35°37' E 139°48'0 0.0
2017-Nov-22 22:00N 35°37' E 139°48'3 5.9
2017-Nov-22 21:31N 35°34' E 139°48'4 8.2
2017-Nov-22 21:01N 35°30' E 139°47'  
2017-Nov-20 00:30N 35°37' E 139°47'0 0.0
2017-Nov-20 00:00N 35°37' E 139°47'1 2.1
2017-Nov-19 23:30N 35°36' E 139°48'0 0.0
2017-Nov-19 23:00N 35°36' E 139°48'0 0.0
2017-Nov-19 22:30N 35°36' E 139°48'0 0.3
2017-Nov-19 22:00N 35°36' E 139°48'3 6.5
2017-Nov-19 21:30N 35°33' E 139°49'4 8.3
2017-Nov-19 21:00N 35°31' E 139°46'1 0.1
2017-Nov-19 05:28N 35°31' E 139°45'3 7.4
2017-Nov-19 05:01N 35°30' E 139°49'611.7
2017-Nov-19 04:31N 35°30' E 139°56'4 1.8
2017-Nov-19 02:29N 35°30' E 140°00'4 5.5
2017-Nov-19 01:45N 35°30' E 139°55'311.5
2017-Nov-19 01:30N 35°30' E 139°52'611.4
2017-Nov-19 01:01N 35°31' E 139°45'1 1.2
2017-Nov-19 00:30N 35°31' E 139°45'0 0.0
2017-Nov-19 00:00N 35°31' E 139°45'0 0.0
2017-Nov-18 09:07N 35°31' E 139°45'0 0.9
2017-Nov-18 09:00N 35°31' E 139°45'5 8.4
2017-Nov-18 08:28N 35°33' E 139°50'511.1
2017-Nov-18 08:00N 35°38' E 139°50'0 0.0
2017-Nov-18 07:23N 35°38' E 139°50'0 0.0
2017-Nov-18 07:00N 35°38' E 139°50'2 0.4
2017-Nov-18 02:17N 35°36' E 139°48'0 0.3
2017-Nov-18 02:00N 35°36' E 139°48'0 0.0
2017-Nov-18 01:30N 35°36' E 139°48'0 0.1
2017-Nov-18 00:59N 35°36' E 139°48'4 8.7
2017-Nov-18 00:30N 35°33' E 139°50'5 9.0
2017-Nov-18 00:00N 35°31' E 139°45'1 0.0
2017-Nov-16 07:28N 35°31' E 139°45'3 6.6
2017-Nov-16 07:00N 35°30' E 139°48'7 1.4
2017-Nov-16 02:03N 35°37' E 139°49'1 4.5
2017-Nov-16 01:51N 35°38' E 139°50'0 0.0
2017-Nov-16 01:25N 35°38' E 139°50'0 0.0
2017-Nov-16 00:54N 35°38' E 139°50'3 7.6
2017-Nov-16 00:30N 35°35' E 139°52'5 1.4
2017-Nov-15 21:04N 35°31' E 139°52'111.8
2017-Nov-15 21:01N 35°31' E 139°51'611.1
2017-Nov-15 20:30N 35°31' E 139°45'0 0.0
2017-Nov-15 05:59N 35°31' E 139°45'5 7.3
2017-Nov-15 05:22N 35°33' E 139°50'410.9
2017-Nov-15 05:00N 35°36' E 139°48'0 0.0
2017-Nov-15 03:09N 35°36' E 139°48'0 0.9
2017-Nov-15 03:00N 35°36' E 139°47'2 2.4
2017-Nov-15 02:04N 35°34' E 139°48'0 0.1
2017-Nov-15 01:59N 35°34' E 139°48'0 0.1
2017-Nov-15 01:30N 35°34' E 139°48'3 1.8
2017-Nov-14 23:44N 35°37' E 139°47'2 6.2
2017-Nov-14 23:28N 35°35' E 139°48'4 9.3
2017-Nov-14 23:00N 35°31' E 139°49'3 7.0
2017-Nov-14 22:30N 35°31' E 139°45'0 0.0
2017-Nov-14 08:28N 35°31' E 139°45'2 4.9
2017-Nov-14 08:00N 35°30' E 139°47'7 1.2
2017-Nov-14 02:13N 35°37' E 139°50'  

Dump ship's entire track history